Avondale, CO

11:39 AM MDT on August 27, 2014 (GMT -0600)
Ellicott | Change Station
CLOSE
Current Station
Airport
Location: Ellicott,
Elevation: 6037 ft
Nearby Weather Stations

Elev 6037 ft 38.76 °N, 104.31 °W | Updated 43 minutes ago

Partly Cloudy
Partly Cloudy
67 °F
Feels Like 67 °F
N
4
Wind Variable Wind from Variable

Today
High -- | Low -- °F
--% Chance of Precip.
Yesterday
High -- | Low -- °F
Precip. -- in
6:23 AM 7:34 PM
Waxing Crescent, 4% visible
Pressure 30.03 in
Visibility 10.0 miles
Clouds Few 1900 ft
Dew Point 55 °F
Humidity 66%
Rainfall 0.00 in
Snow Depth Not available.
UV 8 out of 12
Pollen 9.50 out of 12
Air Quality Not available.
Flu Activity Not available.
METAR KABH 271656Z AUTO VRB03KT 10SM FEW019 19/13 A3022 RMK AO2 SLP168 T01940128 PNO $

More Conditions Fewer Conditions

Pressure 30.03 in
Visibility 10.0 miles
Clouds Few 1900 ft
Dew Point 55 °F
Humidity 66%
Rainfall 0.00 in
Snow Depth Not available.
UV 8 out of 12
Pollen 9.50 out of 12
Air Quality Not available.
Flu Activity Not available.
METAR KABH 271656Z AUTO VRB03KT 10SM FEW019 19/13 A3022 RMK AO2 SLP168 T01940128 PNO $

More Conditions Fewer Conditions

10-Day Weather Forecast

Almanac

Astronomy

Aug. 27, 2014 Rise Set
Actual Time 6:23 AM MDT 7:34 PM MDT
Civil Twilight 5:55 AM MDT 8:01 PM MDT
Nautical Twilight 5:23 AM MDT 8:34 PM MDT
Astronomical Twilight 4:49 AM MDT 9:08 PM MDT
Moon 8:18 AM MDT 8:30 PM MDT
Length of Visible Light 14h 05m
Length of Day
13h 11m
Tomorrow will be 2m 19s shorter.
Waxing Crescent, 4% of the Moon is Illuminated
Today
Waxing Crescent
Sep 2
First Quarter
Sep 8
Full
Sep 15
Last Quarter
Sep 24
New

Today's Extremes

State Highs State Lows

Community

WunderPhotos

Upload Photos

1,747,733 photos uploaded!

Nearby

Snow Depth

Station Depth Elevation
Ute Creek 0 in 10650 ft
Porphyry Creek 0 in 10760 ft
Rough And Tumble 2 in 10360 ft
Michigan Creek 0 in 10600 ft
Buckskin Joe 0 in 11150 ft

Earthquake Activity

City Distance Mag. Time & Date
No recent earthquake activity has been reported nearby.
Minimum magnitude displayed is 2.5.

Coastal Water Temperatures

Place Temperature
No Stations Reporting

Nearby Weather Stations